sensor_id;sensor_type;location;lat;lon;timestamp;P1;durP1;ratioP1;P2;durP2;ratioP2
44532;SDS011;48673;53.016;-2.258;2022-08-21T00:01:51;14.73;;;3.97;;
44532;SDS011;48673;53.016;-2.258;2022-08-21T00:04:19;13.23;;;2.95;;
44532;SDS011;48673;53.016;-2.258;2022-08-21T00:06:51;7.82;;;1.88;;
44532;SDS011;48673;53.016;-2.258;2022-08-21T00:09:19;10.85;;;2.20;;
44532;SDS011;48673;53.016;-2.258;2022-08-21T00:11:47;11.70;;;2.05;;
44532;SDS011;48673;53.016;-2.258;2022-08-21T00:14:15;14.27;;;4.82;;
44532;SDS011;48673;53.016;-2.258;2022-08-21T00:16:43;19.35;;;3.97;;
44532;SDS011;48673;53.016;-2.258;2022-08-21T00:19:11;15.68;;;2.33;;
44532;SDS011;48673;53.016;-2.258;2022-08-21T00:21:39;4.73;;;1.57;;
44532;SDS011;48673;53.016;-2.258;2022-08-21T00:24:10;8.88;;;1.75;;
44532;SDS011;48673;53.016;-2.258;2022-08-21T00:26:38;15.45;;;3.13;;
44532;SDS011;48673;53.016;-2.258;2022-08-21T00:29:06;10.65;;;2.53;;
44532;SDS011;48673;53.016;-2.258;2022-08-21T00:31:34;9.73;;;2.47;;
44532;SDS011;48673;53.016;-2.258;2022-08-21T00:34:02;12.35;;;2.70;;
44532;SDS011;48673;53.016;-2.258;2022-08-21T00:36:30;9.33;;;2.47;;
44532;SDS011;48673;53.016;-2.258;2022-08-21T00:38:58;10.63;;;3.30;;
44532;SDS011;48673;53.016;-2.258;2022-08-21T00:41:26;12.93;;;2.22;;
44532;SDS011;48673;53.016;-2.258;2022-08-21T00:44:06;19.50;;;2.85;;
44532;SDS011;48673;53.016;-2.258;2022-08-21T00:46:36;10.60;;;2.35;;
44532;SDS011;48673;53.016;-2.258;2022-08-21T00:49:06;17.52;;;2.72;;
44532;SDS011;48673;53.016;-2.258;2022-08-21T00:51:39;14.15;;;3.88;;
44532;SDS011;48673;53.016;-2.258;2022-08-21T00:54:10;10.25;;;3.35;;
44532;SDS011;48673;53.016;-2.258;2022-08-21T00:56:46;13.50;;;2.78;;
44532;SDS011;48673;53.016;-2.258;2022-08-21T00:59:18;18.70;;;2.92;;
44532;SDS011;48673;53.016;-2.258;2022-08-21T01:01:48;14.82;;;2.50;;
44532;SDS011;48673;53.016;-2.258;2022-08-21T01:04:17;12.95;;;4.07;;
44532;SDS011;48673;53.016;-2.258;2022-08-21T01:06:45;12.90;;;2.83;;
44532;SDS011;48673;53.016;-2.258;2022-08-21T01:09:13;9.25;;;2.75;;
44532;SDS011;48673;53.016;-2.258;2022-08-21T01:11:42;14.93;;;3.45;;
44532;SDS011;48673;53.016;-2.258;2022-08-21T01:14:12;12.55;;;4.15;;
44532;SDS011;48673;53.016;-2.258;2022-08-21T01:16:42;13.48;;;2.78;;
44532;SDS011;48673;53.016;-2.258;2022-08-21T01:19:12;13.30;;;2.67;;
44532;SDS011;48673;53.016;-2.258;2022-08-21T01:21:42;15.88;;;2.92;;
44532;SDS011;48673;53.016;-2.258;2022-08-21T01:24:10;10.10;;;2.50;;
44532;SDS011;48673;53.016;-2.258;2022-08-21T01:26:39;10.77;;;2.70;;
44532;SDS011;48673;53.016;-2.258;2022-08-21T01:31:34;14.05;;;3.13;;
44532;SDS011;48673;53.016;-2.258;2022-08-21T01:34:04;12.95;;;3.47;;
44532;SDS011;48673;53.016;-2.258;2022-08-21T01:36:32;11.75;;;2.78;;
44532;SDS011;48673;53.016;-2.258;2022-08-21T01:39:01;12.70;;;2.67;;
44532;SDS011;48673;53.016;-2.258;2022-08-21T01:41:31;12.50;;;3.47;;
44532;SDS011;48673;53.016;-2.258;2022-08-21T01:43:58;15.20;;;2.20;;
44532;SDS011;48673;53.016;-2.258;2022-08-21T01:46:26;12.95;;;2.75;;
44532;SDS011;48673;53.016;-2.258;2022-08-21T01:48:54;8.73;;;2.53;;
44532;SDS011;48673;53.016;-2.258;2022-08-21T01:51:21;8.85;;;2.55;;
44532;SDS011;48673;53.016;-2.258;2022-08-21T01:53:50;15.48;;;2.72;;
44532;SDS011;48673;53.016;-2.258;2022-08-21T01:56:17;20.35;;;2.47;;
44532;SDS011;48673;53.016;-2.258;2022-08-21T01:58:46;12.30;;;2.28;;
44532;SDS011;48673;53.016;-2.258;2022-08-21T02:01:14;10.57;;;2.25;;
44532;SDS011;48673;53.016;-2.258;2022-08-21T02:03:43;10.75;;;2.67;;
44532;SDS011;48673;53.016;-2.258;2022-08-21T02:06:14;13.90;;;3.67;;
44532;SDS011;48673;53.016;-2.258;2022-08-21T02:08:45;18.48;;;3.17;;
44532;SDS011;48673;53.016;-2.258;2022-08-21T02:11:13;10.40;;;3.35;;
44532;SDS011;48673;53.016;-2.258;2022-08-21T02:13:41;10.95;;;3.53;;
44532;SDS011;48673;53.016;-2.258;2022-08-21T02:16:11;9.38;;;2.47;;
44532;SDS011;48673;53.016;-2.258;2022-08-21T02:18:45;17.10;;;3.85;;
44532;SDS011;48673;53.016;-2.258;2022-08-21T02:21:14;12.57;;;3.25;;
44532;SDS011;48673;53.016;-2.258;2022-08-21T02:23:42;19.87;;;3.73;;
44532;SDS011;48673;53.016;-2.258;2022-08-21T02:26:10;9.02;;;3.17;;
44532;SDS011;48673;53.016;-2.258;2022-08-21T02:28:38;22.53;;;3.83;;
44532;SDS011;48673;53.016;-2.258;2022-08-21T02:31:06;16.48;;;2.80;;
44532;SDS011;48673;53.016;-2.258;2022-08-21T02:33:33;10.45;;;2.40;;
44532;SDS011;48673;53.016;-2.258;2022-08-21T02:36:02;15.65;;;3.58;;
44532;SDS011;48673;53.016;-2.258;2022-08-21T02:38:32;12.50;;;3.00;;
44532;SDS011;48673;53.016;-2.258;2022-08-21T02:41:01;12.80;;;3.45;;
44532;SDS011;48673;53.016;-2.258;2022-08-21T02:43:29;13.38;;;2.60;;
44532;SDS011;48673;53.016;-2.258;2022-08-21T02:45:57;15.50;;;2.70;;
44532;SDS011;48673;53.016;-2.258;2022-08-21T02:48:26;13.07;;;2.80;;
44532;SDS011;48673;53.016;-2.258;2022-08-21T02:50:57;23.85;;;3.97;;
44532;SDS011;48673;53.016;-2.258;2022-08-21T02:53:28;11.38;;;3.30;;
44532;SDS011;48673;53.016;-2.258;2022-08-21T02:55:57;11.38;;;2.88;;
44532;SDS011;48673;53.016;-2.258;2022-08-21T02:58:28;15.73;;;2.88;;
44532;SDS011;48673;53.016;-2.258;2022-08-21T03:00:58;12.85;;;2.92;;
44532;SDS011;48673;53.016;-2.258;2022-08-21T03:03:27;11.85;;;3.30;;
44532;SDS011;48673;53.016;-2.258;2022-08-21T03:05:56;11.15;;;2.40;;
44532;SDS011;48673;53.016;-2.258;2022-08-21T03:08:23;9.68;;;2.03;;
44532;SDS011;48673;53.016;-2.258;2022-08-21T03:10:53;12.10;;;3.58;;
44532;SDS011;48673;53.016;-2.258;2022-08-21T03:13:21;17.52;;;3.88;;
44532;SDS011;48673;53.016;-2.258;2022-08-21T03:15:49;28.03;;;4.33;;
44532;SDS011;48673;53.016;-2.258;2022-08-21T03:18:17;12.80;;;3.63;;
44532;SDS011;48673;53.016;-2.258;2022-08-21T03:20:45;16.67;;;3.13;;
44532;SDS011;48673;53.016;-2.258;2022-08-21T03:23:14;14.43;;;2.45;;
44532;SDS011;48673;53.016;-2.258;2022-08-21T03:25:45;20.60;;;3.15;;
44532;SDS011;48673;53.016;-2.258;2022-08-21T03:28:15;19.95;;;3.15;;
44532;SDS011;48673;53.016;-2.258;2022-08-21T03:30:44;19.40;;;3.67;;
44532;SDS011;48673;53.016;-2.258;2022-08-21T03:33:14;18.27;;;3.03;;
44532;SDS011;48673;53.016;-2.258;2022-08-21T03:35:47;13.13;;;3.28;;
44532;SDS011;48673;53.016;-2.258;2022-08-21T03:41:03;13.90;;;2.50;;
44532;SDS011;48673;53.016;-2.258;2022-08-21T03:43:31;18.10;;;3.78;;
44532;SDS011;48673;53.016;-2.258;2022-08-21T03:46:03;10.95;;;3.38;;
44532;SDS011;48673;53.016;-2.258;2022-08-21T03:48:32;15.02;;;2.78;;
44532;SDS011;48673;53.016;-2.258;2022-08-21T03:51:01;17.38;;;2.72;;
44532;SDS011;48673;53.016;-2.258;2022-08-21T03:53:30;8.85;;;3.35;;
44532;SDS011;48673;53.016;-2.258;2022-08-21T03:55:57;14.82;;;2.97;;
44532;SDS011;48673;53.016;-2.258;2022-08-21T03:58:26;18.63;;;3.55;;
44532;SDS011;48673;53.016;-2.258;2022-08-21T04:00:55;21.73;;;3.10;;
44532;SDS011;48673;53.016;-2.258;2022-08-21T04:03:25;10.63;;;2.83;;
44532;SDS011;48673;53.016;-2.258;2022-08-21T04:05:54;11.23;;;2.65;;
44532;SDS011;48673;53.016;-2.258;2022-08-21T04:08:21;13.82;;;3.22;;
44532;SDS011;48673;53.016;-2.258;2022-08-21T04:10:50;10.95;;;2.95;;
44532;SDS011;48673;53.016;-2.258;2022-08-21T04:13:19;19.52;;;5.30;;
44532;SDS011;48673;53.016;-2.258;2022-08-21T04:15:48;14.00;;;2.88;;
44532;SDS011;48673;53.016;-2.258;2022-08-21T04:18:16;13.73;;;3.10;;
44532;SDS011;48673;53.016;-2.258;2022-08-21T04:20:44;20.92;;;4.50;;
44532;SDS011;48673;53.016;-2.258;2022-08-21T04:23:20;17.38;;;3.33;;
44532;SDS011;48673;53.016;-2.258;2022-08-21T04:25:51;16.42;;;3.00;;
44532;SDS011;48673;53.016;-2.258;2022-08-21T04:28:20;15.57;;;3.28;;
44532;SDS011;48673;53.016;-2.258;2022-08-21T04:30:55;15.82;;;3.00;;
44532;SDS011;48673;53.016;-2.258;2022-08-21T04:33:23;9.55;;;2.05;;
44532;SDS011;48673;53.016;-2.258;2022-08-21T04:35:51;9.43;;;3.43;;
44532;SDS011;48673;53.016;-2.258;2022-08-21T04:38:20;13.75;;;4.35;;
44532;SDS011;48673;53.016;-2.258;2022-08-21T04:40:49;12.98;;;3.60;;
44532;SDS011;48673;53.016;-2.258;2022-08-21T04:43:18;11.85;;;3.03;;
44532;SDS011;48673;53.016;-2.258;2022-08-21T04:45:47;16.00;;;4.70;;
44532;SDS011;48673;53.016;-2.258;2022-08-21T04:50:47;16.40;;;3.38;;
44532;SDS011;48673;53.016;-2.258;2022-08-21T04:56:09;9.55;;;3.03;;
44532;SDS011;48673;53.016;-2.258;2022-08-21T04:58:42;16.50;;;3.58;;
44532;SDS011;48673;53.016;-2.258;2022-08-21T05:01:11;18.15;;;3.83;;
44532;SDS011;48673;53.016;-2.258;2022-08-21T05:03:42;10.25;;;2.63;;
44532;SDS011;48673;53.016;-2.258;2022-08-21T05:06:12;15.02;;;2.50;;
44532;SDS011;48673;53.016;-2.258;2022-08-21T05:08:42;15.68;;;3.60;;
44532;SDS011;48673;53.016;-2.258;2022-08-21T05:11:12;16.20;;;2.80;;
44532;SDS011;48673;53.016;-2.258;2022-08-21T05:13:40;16.83;;;4.60;;
44532;SDS011;48673;53.016;-2.258;2022-08-21T05:16:09;13.40;;;2.80;;
44532;SDS011;48673;53.016;-2.258;2022-08-21T05:18:36;17.75;;;3.63;;
44532;SDS011;48673;53.016;-2.258;2022-08-21T05:21:04;12.93;;;2.45;;
44532;SDS011;48673;53.016;-2.258;2022-08-21T05:23:32;13.55;;;3.38;;
44532;SDS011;48673;53.016;-2.258;2022-08-21T05:26:00;12.93;;;2.40;;
44532;SDS011;48673;53.016;-2.258;2022-08-21T05:28:28;10.00;;;2.78;;
44532;SDS011;48673;53.016;-2.258;2022-08-21T05:30:56;13.68;;;2.70;;
44532;SDS011;48673;53.016;-2.258;2022-08-21T05:33:24;13.18;;;2.80;;
44532;SDS011;48673;53.016;-2.258;2022-08-21T05:35:52;16.58;;;3.38;;
44532;SDS011;48673;53.016;-2.258;2022-08-21T05:38:23;12.23;;;3.00;;
44532;SDS011;48673;53.016;-2.258;2022-08-21T05:40:55;19.65;;;3.88;;
44532;SDS011;48673;53.016;-2.258;2022-08-21T05:43:22;14.27;;;2.97;;
44532;SDS011;48673;53.016;-2.258;2022-08-21T05:45:50;9.30;;;2.63;;
44532;SDS011;48673;53.016;-2.258;2022-08-21T05:48:22;18.00;;;3.78;;
44532;SDS011;48673;53.016;-2.258;2022-08-21T05:50:51;23.58;;;4.57;;
44532;SDS011;48673;53.016;-2.258;2022-08-21T05:53:20;11.18;;;2.95;;
44532;SDS011;48673;53.016;-2.258;2022-08-21T05:55:50;15.63;;;3.65;;
44532;SDS011;48673;53.016;-2.258;2022-08-21T05:58:19;15.25;;;3.22;;
44532;SDS011;48673;53.016;-2.258;2022-08-21T06:00:48;13.25;;;2.88;;
44532;SDS011;48673;53.016;-2.258;2022-08-21T06:03:19;14.60;;;3.97;;
44532;SDS011;48673;53.016;-2.258;2022-08-21T06:05:48;16.73;;;2.67;;
44532;SDS011;48673;53.016;-2.258;2022-08-21T06:08:17;15.38;;;2.67;;
44532;SDS011;48673;53.016;-2.258;2022-08-21T06:13:14;12.90;;;3.25;;
44532;SDS011;48673;53.016;-2.258;2022-08-21T06:15:43;16.83;;;4.85;;
44532;SDS011;48673;53.016;-2.258;2022-08-21T06:18:11;12.27;;;2.87;;
44532;SDS011;48673;53.016;-2.258;2022-08-21T06:20:40;14.35;;;4.10;;
44532;SDS011;48673;53.016;-2.258;2022-08-21T06:23:08;11.88;;;3.05;;
44532;SDS011;48673;53.016;-2.258;2022-08-21T06:25:36;11.40;;;2.87;;
44532;SDS011;48673;53.016;-2.258;2022-08-21T06:28:05;16.10;;;2.72;;
44532;SDS011;48673;53.016;-2.258;2022-08-21T06:30:35;14.20;;;2.80;;
44532;SDS011;48673;53.016;-2.258;2022-08-21T06:33:05;13.57;;;3.22;;
44532;SDS011;48673;53.016;-2.258;2022-08-21T06:35:34;15.25;;;3.78;;
44532;SDS011;48673;53.016;-2.258;2022-08-21T06:38:07;11.52;;;3.13;;
44532;SDS011;48673;53.016;-2.258;2022-08-21T06:40:35;12.18;;;3.65;;
44532;SDS011;48673;53.016;-2.258;2022-08-21T06:43:14;17.63;;;2.85;;
44532;SDS011;48673;53.016;-2.258;2022-08-21T06:45:43;11.93;;;2.42;;
44532;SDS011;48673;53.016;-2.258;2022-08-21T06:48:11;13.77;;;3.00;;
44532;SDS011;48673;53.016;-2.258;2022-08-21T06:50:46;9.13;;;2.88;;
44532;SDS011;48673;53.016;-2.258;2022-08-21T06:53:17;13.87;;;2.57;;
44532;SDS011;48673;53.016;-2.258;2022-08-21T06:55:46;13.90;;;2.90;;
44532;SDS011;48673;53.016;-2.258;2022-08-21T06:58:15;14.13;;;3.13;;
44532;SDS011;48673;53.016;-2.258;2022-08-21T07:00:44;13.30;;;3.42;;
44532;SDS011;48673;53.016;-2.258;2022-08-21T07:03:29;13.90;;;3.70;;
44532;SDS011;48673;53.016;-2.258;2022-08-21T07:05:59;17.65;;;3.20;;
44532;SDS011;48673;53.016;-2.258;2022-08-21T07:08:27;13.25;;;4.50;;
44532;SDS011;48673;53.016;-2.258;2022-08-21T07:10:56;21.33;;;4.00;;
44532;SDS011;48673;53.016;-2.258;2022-08-21T07:13:25;20.50;;;4.13;;
44532;SDS011;48673;53.016;-2.258;2022-08-21T07:15:53;10.77;;;3.00;;
44532;SDS011;48673;53.016;-2.258;2022-08-21T07:18:21;14.05;;;2.90;;
44532;SDS011;48673;53.016;-2.258;2022-08-21T07:20:48;10.88;;;2.38;;
44532;SDS011;48673;53.016;-2.258;2022-08-21T07:23:22;16.77;;;4.75;;
44532;SDS011;48673;53.016;-2.258;2022-08-21T07:25:55;9.77;;;2.47;;
44532;SDS011;48673;53.016;-2.258;2022-08-21T07:28:23;17.58;;;3.28;;
44532;SDS011;48673;53.016;-2.258;2022-08-21T07:30:53;12.70;;;2.63;;
44532;SDS011;48673;53.016;-2.258;2022-08-21T07:33:25;20.88;;;3.83;;
44532;SDS011;48673;53.016;-2.258;2022-08-21T07:35:56;14.52;;;2.83;;
44532;SDS011;48673;53.016;-2.258;2022-08-21T07:38:23;15.27;;;2.78;;
44532;SDS011;48673;53.016;-2.258;2022-08-21T07:40:52;20.95;;;3.00;;
44532;SDS011;48673;53.016;-2.258;2022-08-21T07:43:22;13.90;;;2.97;;
44532;SDS011;48673;53.016;-2.258;2022-08-21T07:45:49;17.08;;;2.75;;
44532;SDS011;48673;53.016;-2.258;2022-08-21T07:48:17;7.93;;;2.45;;
44532;SDS011;48673;53.016;-2.258;2022-08-21T07:50:45;17.25;;;4.75;;
44532;SDS011;48673;53.016;-2.258;2022-08-21T07:53:13;9.23;;;2.47;;
44532;SDS011;48673;53.016;-2.258;2022-08-21T07:55:41;13.27;;;2.20;;
44532;SDS011;48673;53.016;-2.258;2022-08-21T07:58:09;17.77;;;2.65;;
44532;SDS011;48673;53.016;-2.258;2022-08-21T08:00:37;14.55;;;2.60;;
44532;SDS011;48673;53.016;-2.258;2022-08-21T08:03:06;11.40;;;2.53;;
44532;SDS011;48673;53.016;-2.258;2022-08-21T08:05:36;14.88;;;2.55;;
44532;SDS011;48673;53.016;-2.258;2022-08-21T08:08:06;23.20;;;3.03;;
44532;SDS011;48673;53.016;-2.258;2022-08-21T08:10:33;11.85;;;2.03;;
44532;SDS011;48673;53.016;-2.258;2022-08-21T08:13:02;14.23;;;3.00;;
44532;SDS011;48673;53.016;-2.258;2022-08-21T08:15:30;11.77;;;2.65;;
44532;SDS011;48673;53.016;-2.258;2022-08-21T08:18:03;23.05;;;3.67;;
44532;SDS011;48673;53.016;-2.258;2022-08-21T08:20:31;9.60;;;2.65;;
44532;SDS011;48673;53.016;-2.258;2022-08-21T08:22:59;20.33;;;3.10;;
44532;SDS011;48673;53.016;-2.258;2022-08-21T08:25:27;16.27;;;4.38;;
44532;SDS011;48673;53.016;-2.258;2022-08-21T08:28:03;8.98;;;2.45;;
44532;SDS011;48673;53.016;-2.258;2022-08-21T08:30:44;12.43;;;2.72;;
44532;SDS011;48673;53.016;-2.258;2022-08-21T08:33:13;13.35;;;2.63;;
44532;SDS011;48673;53.016;-2.258;2022-08-21T08:35:45;9.35;;;3.05;;
44532;SDS011;48673;53.016;-2.258;2022-08-21T08:38:16;13.75;;;3.65;;
44532;SDS011;48673;53.016;-2.258;2022-08-21T08:43:20;12.27;;;2.67;;
44532;SDS011;48673;53.016;-2.258;2022-08-21T08:45:49;9.40;;;2.65;;
44532;SDS011;48673;53.016;-2.258;2022-08-21T08:51:24;15.40;;;4.60;;
44532;SDS011;48673;53.016;-2.258;2022-08-21T08:54:02;15.23;;;2.55;;
44532;SDS011;48673;53.016;-2.258;2022-08-21T08:56:35;11.90;;;2.53;;
44532;SDS011;48673;53.016;-2.258;2022-08-21T08:59:13;16.57;;;3.03;;
44532;SDS011;48673;53.016;-2.258;2022-08-21T09:01:45;10.20;;;2.97;;
44532;SDS011;48673;53.016;-2.258;2022-08-21T09:04:13;11.15;;;2.85;;
44532;SDS011;48673;53.016;-2.258;2022-08-21T09:07:05;14.93;;;3.22;;
44532;SDS011;48673;53.016;-2.258;2022-08-21T09:09:38;13.20;;;3.10;;
44532;SDS011;48673;53.016;-2.258;2022-08-21T09:12:17;10.65;;;2.58;;
44532;SDS011;48673;53.016;-2.258;2022-08-21T09:23:43;14.50;;;4.97;;
44532;SDS011;48673;53.016;-2.258;2022-08-21T09:26:30;14.38;;;3.83;;
44532;SDS011;48673;53.016;-2.258;2022-08-21T09:29:08;9.55;;;3.67;;
44532;SDS011;48673;53.016;-2.258;2022-08-21T09:31:39;9.80;;;4.00;;
44532;SDS011;48673;53.016;-2.258;2022-08-21T09:34:08;13.55;;;5.47;;
44532;SDS011;48673;53.016;-2.258;2022-08-21T09:36:40;17.65;;;6.57;;
44532;SDS011;48673;53.016;-2.258;2022-08-21T09:39:09;17.75;;;7.10;;
44532;SDS011;48673;53.016;-2.258;2022-08-21T09:41:39;13.98;;;4.88;;
44532;SDS011;48673;53.016;-2.258;2022-08-21T09:44:08;9.02;;;2.83;;
44532;SDS011;48673;53.016;-2.258;2022-08-21T09:46:36;13.73;;;4.05;;
44532;SDS011;48673;53.016;-2.258;2022-08-21T09:49:04;11.75;;;3.85;;
44532;SDS011;48673;53.016;-2.258;2022-08-21T09:51:36;17.67;;;5.43;;
44532;SDS011;48673;53.016;-2.258;2022-08-21T09:59:36;13.02;;;2.50;;
44532;SDS011;48673;53.016;-2.258;2022-08-21T10:05:06;11.52;;;3.00;;
44532;SDS011;48673;53.016;-2.258;2022-08-21T10:07:42;12.43;;;2.70;;
44532;SDS011;48673;53.016;-2.258;2022-08-21T10:10:15;13.10;;;3.92;;
44532;SDS011;48673;53.016;-2.258;2022-08-21T10:13:01;12.30;;;3.60;;
44532;SDS011;48673;53.016;-2.258;2022-08-21T10:15:49;14.18;;;4.97;;
44532;SDS011;48673;53.016;-2.258;2022-08-21T10:18:48;10.15;;;2.67;;
44532;SDS011;48673;53.016;-2.258;2022-08-21T10:21:56;12.35;;;2.88;;
44532;SDS011;48673;53.016;-2.258;2022-08-21T10:25:18;9.88;;;3.17;;
44532;SDS011;48673;53.016;-2.258;2022-08-21T10:31:03;7.85;;;3.10;;
44532;SDS011;48673;53.016;-2.258;2022-08-21T10:36:46;10.25;;;4.00;;
44532;SDS011;48673;53.016;-2.258;2022-08-21T10:39:41;13.65;;;3.47;;
44532;SDS011;48673;53.016;-2.258;2022-08-21T10:45:15;11.55;;;2.90;;
44532;SDS011;48673;53.016;-2.258;2022-08-21T10:47:49;14.00;;;3.08;;
44532;SDS011;48673;53.016;-2.258;2022-08-21T10:50:31;13.02;;;2.70;;
44532;SDS011;48673;53.016;-2.258;2022-08-21T10:56:25;12.70;;;2.63;;
44532;SDS011;48673;53.016;-2.258;2022-08-21T11:06:47;9.75;;;3.58;;
44532;SDS011;48673;53.016;-2.258;2022-08-21T11:09:21;9.05;;;2.70;;
44532;SDS011;48673;53.016;-2.258;2022-08-21T11:11:57;13.35;;;3.78;;
44532;SDS011;48673;53.016;-2.258;2022-08-21T11:14:52;19.25;;;3.53;;
44532;SDS011;48673;53.016;-2.258;2022-08-21T11:17:36;8.50;;;3.42;;
44532;SDS011;48673;53.016;-2.258;2022-08-21T11:20:16;15.55;;;4.65;;
44532;SDS011;48673;53.016;-2.258;2022-08-21T11:25:35;10.30;;;3.25;;
44532;SDS011;48673;53.016;-2.258;2022-08-21T11:39:19;8.77;;;2.88;;
44532;SDS011;48673;53.016;-2.258;2022-08-21T11:45:03;11.60;;;3.95;;
44532;SDS011;48673;53.016;-2.258;2022-08-21T11:47:46;11.90;;;3.30;;
44532;SDS011;48673;53.016;-2.258;2022-08-21T11:50:28;8.60;;;2.92;;
44532;SDS011;48673;53.016;-2.258;2022-08-21T11:53:11;7.47;;;2.70;;
44532;SDS011;48673;53.016;-2.258;2022-08-21T11:56:08;11.32;;;3.13;;
44532;SDS011;48673;53.016;-2.258;2022-08-21T11:59:00;15.07;;;2.47;;
44532;SDS011;48673;53.016;-2.258;2022-08-21T12:01:32;13.20;;;2.88;;
44532;SDS011;48673;53.016;-2.258;2022-08-21T12:04:15;8.70;;;2.72;;
44532;SDS011;48673;53.016;-2.258;2022-08-21T12:07:10;13.77;;;2.92;;
44532;SDS011;48673;53.016;-2.258;2022-08-21T12:09:40;6.00;;;2.50;;
44532;SDS011;48673;53.016;-2.258;2022-08-21T12:12:29;20.80;;;6.82;;
44532;SDS011;48673;53.016;-2.258;2022-08-21T12:15:15;10.25;;;3.53;;
44532;SDS011;48673;53.016;-2.258;2022-08-21T12:17:54;11.20;;;3.72;;
44532;SDS011;48673;53.016;-2.258;2022-08-21T12:28:26;8.27;;;2.97;;
44532;SDS011;48673;53.016;-2.258;2022-08-21T12:30:55;9.25;;;3.10;;
44532;SDS011;48673;53.016;-2.258;2022-08-21T12:35:52;8.50;;;3.03;;
44532;SDS011;48673;53.016;-2.258;2022-08-21T12:38:32;10.85;;;2.92;;
44532;SDS011;48673;53.016;-2.258;2022-08-21T12:41:33;9.38;;;2.42;;
44532;SDS011;48673;53.016;-2.258;2022-08-21T12:44:12;9.60;;;3.58;;
44532;SDS011;48673;53.016;-2.258;2022-08-21T12:46:45;6.90;;;2.40;;
44532;SDS011;48673;53.016;-2.258;2022-08-21T12:49:34;6.82;;;2.53;;
44532;SDS011;48673;53.016;-2.258;2022-08-21T12:52:12;7.23;;;2.20;;
44532;SDS011;48673;53.016;-2.258;2022-08-21T12:54:47;9.20;;;2.90;;
44532;SDS011;48673;53.016;-2.258;2022-08-21T12:57:20;8.52;;;3.58;;
44532;SDS011;48673;53.016;-2.258;2022-08-21T13:02:31;10.18;;;2.90;;
44532;SDS011;48673;53.016;-2.258;2022-08-21T13:05:06;7.43;;;2.17;;
44532;SDS011;48673;53.016;-2.258;2022-08-21T13:07:43;9.93;;;1.77;;
44532;SDS011;48673;53.016;-2.258;2022-08-21T13:12:59;21.90;;;4.80;;
44532;SDS011;48673;53.016;-2.258;2022-08-21T13:15:39;10.48;;;2.70;;
44532;SDS011;48673;53.016;-2.258;2022-08-21T13:18:28;8.30;;;3.17;;
44532;SDS011;48673;53.016;-2.258;2022-08-21T13:21:06;10.05;;;3.08;;
44532;SDS011;48673;53.016;-2.258;2022-08-21T13:23:39;9.25;;;2.17;;
44532;SDS011;48673;53.016;-2.258;2022-08-21T13:26:14;10.35;;;2.28;;
44532;SDS011;48673;53.016;-2.258;2022-08-21T13:28:45;9.30;;;1.70;;
44532;SDS011;48673;53.016;-2.258;2022-08-21T13:31:27;3.65;;;1.20;;
44532;SDS011;48673;53.016;-2.258;2022-08-21T13:33:59;5.82;;;1.40;;
44532;SDS011;48673;53.016;-2.258;2022-08-21T13:36:29;8.32;;;2.22;;
44532;SDS011;48673;53.016;-2.258;2022-08-21T13:39:03;4.85;;;1.60;;
44532;SDS011;48673;53.016;-2.258;2022-08-21T13:41:35;9.25;;;1.40;;
44532;SDS011;48673;53.016;-2.258;2022-08-21T13:44:21;10.57;;;1.40;;
44532;SDS011;48673;53.016;-2.258;2022-08-21T13:47:12;7.70;;;1.63;;
44532;SDS011;48673;53.016;-2.258;2022-08-21T13:49:45;5.95;;;1.67;;
44532;SDS011;48673;53.016;-2.258;2022-08-21T13:52:22;4.65;;;1.67;;
44532;SDS011;48673;53.016;-2.258;2022-08-21T13:57:32;5.85;;;1.40;;
44532;SDS011;48673;53.016;-2.258;2022-08-21T14:02:45;5.60;;;1.35;;
44532;SDS011;48673;53.016;-2.258;2022-08-21T14:05:21;4.75;;;1.15;;
44532;SDS011;48673;53.016;-2.258;2022-08-21T14:08:15;4.07;;;1.05;;
44532;SDS011;48673;53.016;-2.258;2022-08-21T14:10:56;8.13;;;1.40;;
44532;SDS011;48673;53.016;-2.258;2022-08-21T14:13:29;4.93;;;1.45;;
44532;SDS011;48673;53.016;-2.258;2022-08-21T14:19:18;6.80;;;1.20;;
44532;SDS011;48673;53.016;-2.258;2022-08-21T14:21:48;6.30;;;1.35;;
44532;SDS011;48673;53.016;-2.258;2022-08-21T14:26:52;4.47;;;1.17;;
44532;SDS011;48673;53.016;-2.258;2022-08-21T14:29:21;3.08;;;0.88;;
44532;SDS011;48673;53.016;-2.258;2022-08-21T14:31:59;4.00;;;1.05;;
44532;SDS011;48673;53.016;-2.258;2022-08-21T14:34:51;3.50;;;1.23;;
44532;SDS011;48673;53.016;-2.258;2022-08-21T14:37:21;3.13;;;1.02;;
44532;SDS011;48673;53.016;-2.258;2022-08-21T14:39:51;3.70;;;1.30;;
44532;SDS011;48673;53.016;-2.258;2022-08-21T14:42:36;4.30;;;1.67;;
44532;SDS011;48673;53.016;-2.258;2022-08-21T14:45:27;3.47;;;0.63;;
44532;SDS011;48673;53.016;-2.258;2022-08-21T14:48:04;9.05;;;1.20;;
44532;SDS011;48673;53.016;-2.258;2022-08-21T14:50:40;4.55;;;1.52;;
44532;SDS011;48673;53.016;-2.258;2022-08-21T14:53:14;2.85;;;1.30;;
44532;SDS011;48673;53.016;-2.258;2022-08-21T14:55:42;3.80;;;1.30;;
44532;SDS011;48673;53.016;-2.258;2022-08-21T14:58:28;3.83;;;1.35;;
44532;SDS011;48673;53.016;-2.258;2022-08-21T15:00:56;6.05;;;1.02;;
44532;SDS011;48673;53.016;-2.258;2022-08-21T15:03:25;5.65;;;1.10;;
44532;SDS011;48673;53.016;-2.258;2022-08-21T15:05:53;1.95;;;0.93;;
44532;SDS011;48673;53.016;-2.258;2022-08-21T15:08:20;6.07;;;2.38;;
44532;SDS011;48673;53.016;-2.258;2022-08-21T15:10:48;2.47;;;0.50;;
44532;SDS011;48673;53.016;-2.258;2022-08-21T15:13:37;1.50;;;0.50;;
44532;SDS011;48673;53.016;-2.258;2022-08-21T15:16:05;2.00;;;0.63;;
44532;SDS011;48673;53.016;-2.258;2022-08-21T15:18:37;0.52;;;0.38;;
44532;SDS011;48673;53.016;-2.258;2022-08-21T15:21:05;1.42;;;0.57;;
44532;SDS011;48673;53.016;-2.258;2022-08-21T15:23:34;30.23;;;2.92;;
44532;SDS011;48673;53.016;-2.258;2022-08-21T15:26:05;0.95;;;0.57;;
44532;SDS011;48673;53.016;-2.258;2022-08-21T15:28:34;3.70;;;0.70;;
44532;SDS011;48673;53.016;-2.258;2022-08-21T15:31:03;2.42;;;0.70;;
44532;SDS011;48673;53.016;-2.258;2022-08-21T15:33:32;1.80;;;0.50;;
44532;SDS011;48673;53.016;-2.258;2022-08-21T15:36:00;3.33;;;0.80;;
44532;SDS011;48673;53.016;-2.258;2022-08-21T15:38:28;2.37;;;0.70;;
44532;SDS011;48673;53.016;-2.258;2022-08-21T15:40:55;6.82;;;0.93;;
44532;SDS011;48673;53.016;-2.258;2022-08-21T15:45:59;3.60;;;1.00;;
44532;SDS011;48673;53.016;-2.258;2022-08-21T15:48:28;7.25;;;1.67;;
44532;SDS011;48673;53.016;-2.258;2022-08-21T15:50:56;3.45;;;1.17;;
44532;SDS011;48673;53.016;-2.258;2022-08-21T15:53:23;2.78;;;0.63;;
44532;SDS011;48673;53.016;-2.258;2022-08-21T15:55:52;3.50;;;0.60;;
44532;SDS011;48673;53.016;-2.258;2022-08-21T15:58:21;3.13;;;0.95;;
44532;SDS011;48673;53.016;-2.258;2022-08-21T16:00:49;5.07;;;1.30;;
44532;SDS011;48673;53.016;-2.258;2022-08-21T16:03:17;3.08;;;0.80;;
44532;SDS011;48673;53.016;-2.258;2022-08-21T16:05:59;2.63;;;0.90;;
44532;SDS011;48673;53.016;-2.258;2022-08-21T16:08:27;3.10;;;0.90;;
44532;SDS011;48673;53.016;-2.258;2022-08-21T16:10:54;5.30;;;0.65;;
44532;SDS011;48673;53.016;-2.258;2022-08-21T16:13:27;3.40;;;0.70;;
44532;SDS011;48673;53.016;-2.258;2022-08-21T16:15:58;4.18;;;1.02;;
44532;SDS011;48673;53.016;-2.258;2022-08-21T16:18:26;5.03;;;0.90;;
44532;SDS011;48673;53.016;-2.258;2022-08-21T16:20:54;3.25;;;0.75;;
44532;SDS011;48673;53.016;-2.258;2022-08-21T16:23:23;6.97;;;1.67;;
44532;SDS011;48673;53.016;-2.258;2022-08-21T16:25:51;4.03;;;0.80;;
44532;SDS011;48673;53.016;-2.258;2022-08-21T16:28:19;4.10;;;0.50;;
44532;SDS011;48673;53.016;-2.258;2022-08-21T16:30:49;2.97;;;0.80;;
44532;SDS011;48673;53.016;-2.258;2022-08-21T16:33:41;6.45;;;1.00;;
44532;SDS011;48673;53.016;-2.258;2022-08-21T16:36:11;2.67;;;0.90;;
44532;SDS011;48673;53.016;-2.258;2022-08-21T16:38:40;7.20;;;1.98;;